Time;durP1;ratioP1;P1;durP2;ratioP2;P2;SDS_P1;SDS_P2;PMS_P1;PMS_P2;Temp;Humidity;BMP_temperature;BMP_pressure;BME280_temperature;BME280_humidity;BME280_pressure;Samples;Min_cycle;Max_cycle;Signal;HPM_P1;HPM_P2
2022/06/07 00:02:45;;;;;;;0.40;0.40;;;15.10;99.90;;;;;;5055407;28;20197;-69
2022/06/07 00:05:34;;;;;;;0.40;0.40;;;15.10;99.90;;;;;;5054736;28;20564;-68
2022/06/07 00:08:23;;;;;;;0.40;0.40;;;15.10;99.90;;;;;;5055254;28;20208;-69
2022/06/07 00:11:11;;;;;;;0.43;0.43;;;15.20;99.90;;;;;;5054892;28;20221;-68
2022/06/07 00:14:01;;;;;;;0.40;0.40;;;15.20;99.90;;;;;;5054399;28;20202;-69
2022/06/07 00:16:49;;;;;;;0.40;0.40;;;15.20;99.90;;;;;;5055151;28;20232;-67
2022/06/07 00:19:37;;;;;;;0.40;0.40;;;15.10;99.90;;;;;;5054441;28;20217;-68
2022/06/07 00:22:25;;;;;;;0.50;0.50;;;15.10;99.90;;;;;;5054891;28;20260;-69
2022/06/07 00:25:15;;;;;;;0.40;0.40;;;15.10;99.90;;;;;;5055880;28;20224;-69
2022/06/07 00:28:04;;;;;;;0.50;0.50;;;15.10;99.90;;;;;;5054973;28;20205;-69
2022/06/07 00:30:54;;;;;;;0.40;0.40;;;15.10;99.90;;;;;;5053727;28;20581;-68
2022/06/07 00:33:42;;;;;;;0.40;0.40;;;15.10;99.90;;;;;;5054397;28;20701;-68
2022/06/07 00:36:31;;;;;;;0.50;0.50;;;15.10;99.90;;;;;;5055829;28;20568;-67
2022/06/07 00:39:20;;;;;;;0.57;0.57;;;15.10;99.90;;;;;;5054354;28;20202;-68
2022/06/07 00:42:09;;;;;;;0.40;0.40;;;15.00;99.90;;;;;;5053961;28;20193;-69
2022/06/07 00:44:58;;;;;;;0.40;0.40;;;15.00;99.90;;;;;;5054461;28;20490;-68
2022/06/07 00:47:48;;;;;;;0.40;0.40;;;15.00;99.90;;;;;;5053951;28;20197;-68
2022/06/07 00:50:44;;;;;;;0.43;0.43;;;15.10;99.90;;;;;;5054056;28;20251;-68
2022/06/07 00:53:34;;;;;;;0.40;0.40;;;15.10;99.90;;;;;;5053906;28;20639;-68
2022/06/07 00:56:22;;;;;;;0.50;0.50;;;15.20;99.90;;;;;;5048206;28;20245;-68
2022/06/07 00:59:10;;;;;;;0.50;0.50;;;15.20;99.90;;;;;;5033778;28;20228;-67
2022/06/07 01:01:59;;;;;;;0.40;0.40;;;15.20;99.90;;;;;;5034367;28;20197;-69
2022/06/07 01:04:49;;;;;;;0.40;0.40;;;15.10;99.90;;;;;;5034041;28;20280;-68
2022/06/07 01:14:50;;;;;;;0.83;0.83;;;15.10;99.90;;;;;;5031082;28;20479;-67
2022/06/07 01:17:38;;;;;;;0.40;0.40;;;15.10;99.90;;;;;;5034777;28;20602;-68
2022/06/07 01:20:28;;;;;;;0.50;0.50;;;15.00;99.90;;;;;;5036918;28;20202;-68
2022/06/07 01:23:17;;;;;;;0.40;0.40;;;15.00;99.90;;;;;;5034467;28;20424;-68
2022/06/07 01:26:05;;;;;;;0.40;0.40;;;15.00;99.90;;;;;;5034844;28;20313;-68
2022/06/07 01:28:54;;;;;;;0.40;0.40;;;14.90;99.90;;;;;;5033989;28;20483;-68
2022/06/07 01:31:42;;;;;;;0.47;0.47;;;14.80;99.90;;;;;;5034550;28;20214;-69
2022/06/07 01:34:31;;;;;;;0.50;0.50;;;14.80;99.90;;;;;;5034247;28;20276;-67
2022/06/07 01:37:20;;;;;;;0.40;0.40;;;14.70;99.90;;;;;;5035781;28;20591;-67
2022/06/07 01:43:17;;;;;;;0.50;0.50;;;14.60;99.90;;;;;;5034373;28;20686;-69
2022/06/07 01:46:06;;;;;;;0.40;0.40;;;14.50;99.90;;;;;;5035526;28;20229;-67
2022/06/07 01:48:54;;;;;;;0.40;0.40;;;14.50;99.90;;;;;;5033490;28;20433;-68
2022/06/07 01:51:42;;;;;;;0.43;0.43;;;14.50;99.90;;;;;;5035041;28;20698;-67
2022/06/07 01:54:30;;;;;;;0.50;0.50;;;14.50;99.90;;;;;;5034181;28;20275;-67
2022/06/07 01:57:21;;;;;;;0.50;0.50;;;14.50;99.90;;;;;;5048321;28;20209;-68
2022/06/07 02:00:10;;;;;;;0.40;0.40;;;14.40;99.90;;;;;;5053217;28;20205;-69
2022/06/07 02:02:58;;;;;;;0.40;0.40;;;14.40;99.90;;;;;;5053324;28;20700;-68
2022/06/07 02:05:54;;;;;;;0.50;0.50;;;14.40;99.90;;;;;;5053979;28;20444;-68
2022/06/07 02:08:43;;;;;;;0.40;0.40;;;14.30;99.90;;;;;;5053325;28;20205;-67
2022/06/07 02:11:31;;;;;;;0.50;0.50;;;14.20;99.90;;;;;;5053719;28;20205;-68
2022/06/07 02:14:20;;;;;;;0.40;0.40;;;14.20;99.90;;;;;;5052885;28;20202;-68
2022/06/07 02:17:09;;;;;;;0.47;0.47;;;14.20;99.90;;;;;;5053101;28;20439;-69
2022/06/07 02:19:57;;;;;;;0.50;0.50;;;14.20;99.90;;;;;;5053010;28;20991;-69
2022/06/07 02:22:47;;;;;;;1.23;1.20;;;14.20;99.90;;;;;;5052488;28;20412;-69
2022/06/07 02:25:41;;;;;;;0.50;0.50;;;14.20;99.90;;;;;;5053533;28;20874;-68
2022/06/07 02:28:31;;;;;;;0.50;0.50;;;14.20;99.90;;;;;;5053738;28;20434;-67
2022/06/07 02:31:22;;;;;;;0.40;0.40;;;14.20;99.90;;;;;;5053348;28;20213;-67
2022/06/07 02:34:15;;;;;;;0.40;0.40;;;14.20;99.90;;;;;;5052474;28;20523;-68
2022/06/07 02:37:05;;;;;;;0.50;0.50;;;14.30;99.90;;;;;;5055469;28;20228;-68
2022/06/07 02:39:56;;;;;;;0.50;0.50;;;14.20;99.90;;;;;;5056072;28;20416;-68
2022/06/07 02:42:44;;;;;;;0.50;0.50;;;14.20;99.90;;;;;;5056503;28;20209;-68
2022/06/07 02:45:32;;;;;;;0.50;0.50;;;14.30;99.90;;;;;;5056901;28;20439;-67
2022/06/07 02:48:21;;;;;;;0.50;0.50;;;14.20;99.90;;;;;;5056809;28;20432;-69
2022/06/07 02:51:09;;;;;;;0.40;0.40;;;14.20;99.90;;;;;;5057132;28;20439;-68
2022/06/07 02:53:58;;;;;;;0.50;0.50;;;14.10;99.90;;;;;;5056018;28;20807;-67
2022/06/07 02:56:46;;;;;;;0.50;0.50;;;14.10;99.90;;;;;;5047170;28;20436;-68
2022/06/07 02:59:34;;;;;;;0.90;0.90;;;14.00;99.90;;;;;;5036769;28;20432;-68
2022/06/07 03:02:22;;;;;;;0.47;0.47;;;14.00;99.90;;;;;;5037926;28;20418;-68
2022/06/07 03:05:12;;;;;;;0.50;0.50;;;14.00;99.90;;;;;;5038348;28;20605;-69
2022/06/07 03:08:01;;;;;;;0.50;0.50;;;14.00;99.90;;;;;;5037281;28;20425;-68
2022/06/07 03:10:49;;;;;;;0.40;0.40;;;14.10;99.90;;;;;;5038187;28;20999;-68
2022/06/07 03:13:37;;;;;;;0.50;0.50;;;14.10;99.90;;;;;;5038689;28;20467;-68
2022/06/07 03:16:26;;;;;;;0.40;0.40;;;14.10;99.90;;;;;;5037723;28;20457;-69
2022/06/07 03:19:14;;;;;;;0.50;0.50;;;14.10;99.90;;;;;;5037009;28;20446;-69
2022/06/07 03:22:04;;;;;;;0.40;0.40;;;14.10;99.90;;;;;;5037869;28;20818;-68
2022/06/07 03:24:52;;;;;;;0.50;0.50;;;14.10;99.90;;;;;;5037445;28;20973;-68
2022/06/07 03:27:41;;;;;;;0.40;0.40;;;14.10;99.90;;;;;;5037161;28;20430;-69
2022/06/07 03:30:29;;;;;;;0.50;0.50;;;14.10;99.90;;;;;;5037435;28;20440;-67
2022/06/07 03:33:17;;;;;;;0.50;0.50;;;14.10;99.90;;;;;;5037138;28;20468;-67
2022/06/07 03:36:08;;;;;;;0.50;0.50;;;14.10;99.90;;;;;;5036338;28;20445;-69
2022/06/07 03:39:02;;;;;;;0.50;0.50;;;14.00;99.90;;;;;;5036562;28;20440;-68
2022/06/07 03:41:50;;;;;;;0.40;0.40;;;14.00;99.90;;;;;;5037334;28;20213;-68
2022/06/07 03:44:38;;;;;;;0.40;0.40;;;14.00;99.90;;;;;;5035516;28;20445;-67
2022/06/07 03:47:27;;;;;;;0.40;0.40;;;14.00;99.90;;;;;;5037432;28;20432;-69
2022/06/07 03:50:15;;;;;;;0.40;0.40;;;13.90;99.90;;;;;;5036616;28;20783;-68
2022/06/07 03:53:04;;;;;;;0.43;0.43;;;14.00;99.90;;;;;;5035097;28;20519;-68
2022/06/07 03:55:55;;;;;;;0.40;0.40;;;13.90;99.90;;;;;;5038510;28;20877;-68
2022/06/07 03:58:43;;;;;;;0.43;0.43;;;13.90;99.90;;;;;;5055176;28;20431;-67
2022/06/07 04:01:31;;;;;;;0.40;0.40;;;13.90;99.90;;;;;;5055008;28;20428;-67
2022/06/07 04:04:20;;;;;;;0.50;0.50;;;13.90;99.90;;;;;;5055650;28;20452;-68
2022/06/07 04:10:19;;;;;;;0.40;0.40;;;14.00;99.90;;;;;;4992164;28;20444;-68
2022/06/07 04:13:09;;;;;;;0.50;0.50;;;14.10;99.90;;;;;;5055110;28;20228;-69
2022/06/07 04:15:57;;;;;;;0.50;0.50;;;14.10;99.90;;;;;;5055338;28;20526;-67
2022/06/07 04:18:45;;;;;;;0.73;0.70;;;14.10;99.90;;;;;;5054255;28;20429;-68
2022/06/07 04:21:33;;;;;;;0.50;0.50;;;14.20;99.90;;;;;;5055048;28;20428;-67
2022/06/07 04:24:21;;;;;;;0.50;0.50;;;14.20;99.90;;;;;;5054348;28;20448;-68
2022/06/07 04:27:10;;;;;;;0.40;0.40;;;14.30;99.90;;;;;;5055619;28;20466;-68
2022/06/07 04:29:59;;;;;;;0.50;0.50;;;14.30;99.90;;;;;;5054874;28;20416;-68
2022/06/07 04:32:49;;;;;;;0.50;0.50;;;14.30;99.90;;;;;;5054369;28;20232;-69
2022/06/07 04:35:37;;;;;;;0.50;0.50;;;14.40;99.90;;;;;;5055300;28;20519;-69
2022/06/07 04:38:25;;;;;;;0.43;0.43;;;14.50;99.90;;;;;;5054571;28;20428;-67
2022/06/07 04:41:21;;;;;;;1.07;1.07;;;14.50;99.90;;;;;;5054798;28;20436;-68
2022/06/07 04:44:09;;;;;;;2.03;1.93;;;14.50;99.90;;;;;;5054314;28;20431;-68
2022/06/07 04:46:59;;;;;;;0.50;0.50;;;14.60;99.90;;;;;;5054803;28;20428;-69
2022/06/07 04:49:47;;;;;;;0.40;0.40;;;14.70;99.90;;;;;;5054736;28;20428;-68
2022/06/07 04:52:35;;;;;;;0.40;0.40;;;14.70;99.90;;;;;;5054941;28;20505;-68
2022/06/07 04:55:23;;;;;;;0.50;0.50;;;14.80;99.90;;;;;;5054868;28;20444;-67
2022/06/07 04:58:11;;;;;;;0.40;0.40;;;14.80;99.90;;;;;;5014389;28;20437;-68
2022/06/07 05:00:59;;;;;;;0.50;0.50;;;14.90;99.90;;;;;;5013829;28;20630;-68
2022/06/07 05:03:49;;;;;;;0.50;0.50;;;15.00;99.90;;;;;;5014426;28;20246;-68
2022/06/07 05:06:39;;;;;;;0.40;0.40;;;15.00;99.90;;;;;;5014758;28;20198;-69
2022/06/07 05:09:31;;;;;;;0.50;0.50;;;15.10;99.90;;;;;;5015039;28;20453;-69
2022/06/07 05:12:19;;;;;;;0.50;0.50;;;15.10;99.90;;;;;;5022618;28;20433;-69
2022/06/07 05:15:09;;;;;;;0.60;0.60;;;15.20;99.90;;;;;;5013817;28;20256;-69
2022/06/07 05:17:57;;;;;;;0.50;0.50;;;15.30;99.90;;;;;;5013767;28;20434;-67
2022/06/07 05:20:46;;;;;;;0.50;0.50;;;15.30;99.90;;;;;;5013343;28;20682;-69
2022/06/07 05:23:35;;;;;;;0.50;0.50;;;15.40;99.90;;;;;;5013224;28;20414;-68
2022/06/07 05:26:27;;;;;;;0.40;0.40;;;15.50;99.90;;;;;;5012837;28;20859;-68
2022/06/07 05:29:18;;;;;;;0.50;0.50;;;15.60;99.90;;;;;;5014056;28;20199;-69
2022/06/07 05:32:06;;;;;;;0.50;0.50;;;15.70;99.90;;;;;;5013650;28;20261;-69
2022/06/07 05:34:55;;;;;;;0.40;0.40;;;15.80;99.90;;;;;;5013058;28;20584;-69
2022/06/07 05:37:44;;;;;;;0.50;0.50;;;15.90;99.90;;;;;;5012429;28;20199;-69
2022/06/07 05:40:32;;;;;;;0.50;0.50;;;16.00;99.90;;;;;;5010427;28;20225;-69
2022/06/07 05:43:21;;;;;;;0.50;0.50;;;16.00;99.90;;;;;;5011993;28;20210;-70
2022/06/07 05:46:09;;;;;;;0.40;0.40;;;16.20;99.90;;;;;;5033810;28;20226;-69
2022/06/07 05:48:58;;;;;;;0.50;0.50;;;16.20;99.90;;;;;;5029071;28;20246;-69
2022/06/07 05:51:46;;;;;;;0.50;0.50;;;16.30;99.90;;;;;;5010222;28;20206;-69
2022/06/07 05:54:38;;;;;;;0.50;0.50;;;16.40;99.90;;;;;;5015976;28;20234;-71
2022/06/07 05:57:26;;;;;;;0.50;0.50;;;16.40;99.90;;;;;;5021491;28;20667;-70
2022/06/07 06:00:16;;;;;;;0.50;0.50;;;16.50;99.90;;;;;;5033077;28;20197;-71
2022/06/07 06:03:05;;;;;;;0.40;0.40;;;16.50;99.90;;;;;;5035246;28;20584;-69
2022/06/07 06:05:54;;;;;;;0.90;0.90;;;16.60;99.90;;;;;;5031226;28;20218;-71
2022/06/07 06:11:50;;;;;;;0.50;0.50;;;16.80;99.90;;;;;;5029840;28;20239;-70
2022/06/07 06:14:39;;;;;;;0.40;0.40;;;16.90;99.90;;;;;;5032317;28;20233;-73
2022/06/07 06:17:27;;;;;;;0.50;0.50;;;17.00;99.90;;;;;;5031338;28;20202;-69
2022/06/07 06:20:15;;;;;;;0.50;0.50;;;17.00;99.90;;;;;;5032114;28;20614;-72
2022/06/07 06:23:03;;;;;;;0.50;0.50;;;17.10;99.90;;;;;;5031070;28;20202;-71
2022/06/07 06:25:52;;;;;;;0.40;0.40;;;17.30;99.90;;;;;;5032579;28;20301;-70
2022/06/07 06:28:42;;;;;;;0.45;0.45;;;17.70;99.90;;;;;;5032376;28;20206;-70
2022/06/07 06:31:31;;;;;;;0.40;0.40;;;18.00;99.90;;;;;;5030966;28;20589;-71
2022/06/07 06:34:19;;;;;;;0.50;0.50;;;18.30;99.90;;;;;;5032175;28;20293;-70
2022/06/07 06:37:08;;;;;;;0.40;0.40;;;18.40;99.90;;;;;;5031008;28;20205;-69
2022/06/07 06:39:56;;;;;;;0.40;0.40;;;18.70;99.90;;;;;;5031863;28;20275;-70
2022/06/07 06:42:44;;;;;;;0.40;0.40;;;19.00;99.90;;;;;;5031054;28;20209;-70
2022/06/07 06:45:33;;;;;;;0.40;0.40;;;19.30;99.90;;;;;;5032261;28;20225;-69
2022/06/07 06:48:21;;;;;;;0.40;0.40;;;19.60;99.90;;;;;;5031003;28;20772;-72
2022/06/07 06:51:11;;;;;;;0.40;0.40;;;19.70;99.90;;;;;;5026298;28;20198;-69
2022/06/07 06:54:01;;;;;;;0.40;0.40;;;19.70;99.90;;;;;;5012361;28;20214;-73
2022/06/07 06:56:49;;;;;;;0.40;0.40;;;19.70;99.90;;;;;;5029820;28;20258;-71
2022/06/07 06:59:37;;;;;;;0.50;0.50;;;19.60;99.90;;;;;;5050130;28;20194;-70
2022/06/07 07:02:27;;;;;;;0.43;0.43;;;19.80;99.90;;;;;;5049894;28;20205;-70
2022/06/07 07:05:16;;;;;;;0.40;0.40;;;20.20;99.90;;;;;;5050823;28;20248;-69
2022/06/07 07:08:05;;;;;;;0.40;0.40;;;20.30;99.90;;;;;;5050453;28;20237;-71
2022/06/07 07:11:03;;;;;;;0.40;0.40;;;20.30;99.90;;;;;;5053852;28;20194;-71
2022/06/07 07:13:53;;;;;;;0.40;0.40;;;20.20;99.90;;;;;;5050080;28;20233;-70
2022/06/07 07:16:45;;;;;;;0.40;0.40;;;20.10;99.90;;;;;;5044246;28;20212;-72
2022/06/07 07:19:35;;;;;;;0.50;0.50;;;19.90;99.90;;;;;;5019613;28;20559;-71
2022/06/07 07:22:23;;;;;;;0.40;0.40;;;19.90;99.90;;;;;;5011571;28;20613;-69
2022/06/07 07:25:11;;;;;;;0.40;0.40;;;19.80;99.90;;;;;;5013484;28;20240;-70
2022/06/07 07:27:59;;;;;;;0.52;0.52;;;19.60;99.90;;;;;;5013783;28;20611;-71
2022/06/07 07:30:48;;;;;;;0.40;0.40;;;19.70;99.90;;;;;;5013719;28;20273;-70
2022/06/07 07:33:36;;;;;;;0.40;0.40;;;20.00;99.90;;;;;;5030296;28;20265;-69
2022/06/07 07:36:27;;;;;;;0.40;0.40;;;20.60;99.90;;;;;;5033725;28;20222;-70
2022/06/07 07:39:15;;;;;;;0.50;0.50;;;21.10;99.90;;;;;;5042515;28;20209;-70
2022/06/07 07:42:04;;;;;;;0.40;0.40;;;21.40;99.90;;;;;;5036182;28;20229;-69
2022/06/07 07:44:52;;;;;;;0.40;0.40;;;21.40;99.90;;;;;;5033677;28;20594;-70
2022/06/07 07:47:40;;;;;;;0.40;0.40;;;21.20;99.90;;;;;;5032398;28;20228;-71
2022/06/07 07:50:29;;;;;;;0.43;0.43;;;21.00;99.90;;;;;;5033414;28;20209;-70
2022/06/07 07:53:19;;;;;;;0.40;0.40;;;20.90;99.90;;;;;;5033561;28;20208;-72
2022/06/07 07:56:08;;;;;;;0.50;0.50;;;20.80;99.90;;;;;;5032689;28;20226;-70
2022/06/07 07:58:58;;;;;;;0.93;0.93;;;20.70;99.90;;;;;;5033014;28;20206;-70
2022/06/07 08:01:46;;;;;;;0.40;0.40;;;20.70;99.90;;;;;;5034581;28;20290;-69
2022/06/07 08:04:34;;;;;;;0.40;0.40;;;20.70;99.90;;;;;;5033733;28;20226;-70
2022/06/07 08:07:23;;;;;;;0.40;0.40;;;21.00;99.90;;;;;;5026493;28;20209;-69
2022/06/07 08:10:12;;;;;;;0.40;0.40;;;21.40;99.90;;;;;;5027436;28;20194;-68
2022/06/07 08:13:03;;;;;;;0.40;0.40;;;21.70;99.90;;;;;;5019392;28;20676;-69
2022/06/07 08:15:51;;;;;;;0.50;0.50;;;22.00;99.90;;;;;;5030918;28;20279;-69
2022/06/07 08:18:40;;;;;;;0.40;0.40;;;22.20;99.90;;;;;;5032011;28;20206;-69
2022/06/07 08:21:30;;;;;;;0.40;0.40;;;22.40;99.90;;;;;;5044424;28;20201;-69
2022/06/07 08:24:18;;;;;;;0.40;0.40;;;22.50;99.90;;;;;;5052725;28;20212;-70
2022/06/07 08:27:09;;;;;;;0.40;0.40;;;22.50;99.90;;;;;;5040831;28;20212;-69
2022/06/07 08:29:57;;;;;;;0.50;0.50;;;22.30;99.90;;;;;;5034139;28;20213;-70
2022/06/07 08:32:45;;;;;;;0.40;0.40;;;22.20;99.90;;;;;;5032994;28;20202;-69
2022/06/07 08:38:39;;;;;;;0.40;0.40;;;22.20;99.90;;;;;;5031908;28;20244;-70
2022/06/07 08:41:32;;;;;;;0.40;0.40;;;22.20;99.90;;;;;;5032476;28;20198;-70
2022/06/07 08:44:26;;;;;;;0.40;0.40;;;22.10;99.90;;;;;;5034032;28;20194;-71
2022/06/07 08:47:20;;;;;;;0.40;0.40;;;22.10;99.90;;;;;;5032815;28;20194;-70
2022/06/07 08:50:17;;;;;;;0.50;0.50;;;22.10;99.90;;;;;;5032278;28;20252;-69
2022/06/07 08:53:13;;;;;;;0.40;0.40;;;22.20;99.90;;;;;;5032413;28;20288;-69
2022/06/07 08:56:09;;;;;;;0.40;0.40;;;22.30;99.90;;;;;;5032665;28;20233;-68
2022/06/07 08:59:01;;;;;;;0.40;0.40;;;22.50;99.90;;;;;;5033327;28;20217;-69
2022/06/07 09:01:59;;;;;;;0.40;0.40;;;22.70;99.90;;;;;;5031764;28;20291;-69
2022/06/07 09:04:47;;;;;;;0.40;0.40;;;22.70;99.90;;;;;;5033725;28;20226;-69
2022/06/07 09:07:35;;;;;;;0.40;0.40;;;22.80;99.90;;;;;;5034155;28;20277;-70
2022/06/07 09:13:29;;;;;;;0.40;0.40;;;23.20;99.90;;;;;;5034034;28;20251;-68
2022/06/07 09:16:18;;;;;;;0.40;0.40;;;23.30;99.90;;;;;;5031525;28;20291;-69
2022/06/07 09:19:12;;;;;;;0.40;0.40;;;23.20;99.90;;;;;;5031892;28;20212;-69
2022/06/07 09:22:06;;;;;;;0.47;0.47;;;23.10;99.90;;;;;;5031801;28;20663;-68
2022/06/07 09:25:02;;;;;;;0.40;0.40;;;23.30;99.90;;;;;;5031940;28;20628;-69
2022/06/07 09:27:50;;;;;;;0.50;0.50;;;23.60;99.70;;;;;;5030850;28;20355;-69
2022/06/07 09:30:43;;;;;;;0.40;0.40;;;23.60;99.30;;;;;;5032264;28;20213;-69
2022/06/07 09:33:33;;;;;;;0.40;0.40;;;23.80;98.80;;;;;;5030079;28;20202;-68
2022/06/07 09:36:28;;;;;;;0.40;0.40;;;24.10;99.30;;;;;;5014027;28;20233;-68
2022/06/07 09:39:20;;;;;;;0.40;0.40;;;24.60;99.40;;;;;;5012142;28;20224;-68
2022/06/07 09:42:19;;;;;;;0.60;0.60;;;24.90;98.30;;;;;;5013462;28;20199;-68
2022/06/07 09:45:20;;;;;;;0.50;0.50;;;25.10;96.20;;;;;;5013797;28;20241;-69
2022/06/07 09:48:26;;;;;;;0.40;0.40;;;24.80;95.70;;;;;;5012922;28;20206;-68
2022/06/07 09:51:18;;;;;;;0.40;0.40;;;24.60;96.60;;;;;;5013711;28;20216;-68
2022/06/07 09:54:17;;;;;;;0.40;0.40;;;24.40;96.30;;;;;;5013936;28;20203;-68
2022/06/07 09:57:14;;;;;;;0.40;0.40;;;24.20;96.50;;;;;;5012765;28;20274;-69
2022/06/07 10:00:31;;;;;;;0.40;0.40;;;24.20;96.20;;;;;;5030973;28;20228;-68
2022/06/07 10:03:43;;;;;;;0.45;0.45;;;24.40;96.10;;;;;;5030830;28;20205;-68
2022/06/07 10:06:35;;;;;;;0.40;0.40;;;24.60;92.60;;;;;;5062175;22;20324;-66
2022/06/07 10:09:48;;;;;;;0.50;0.50;;;24.40;91.80;;;;;;5041525;28;20229;-66
2022/06/07 10:12:42;;;;;;;0.40;0.40;;;24.00;91.20;;;;;;5036198;28;20210;-66
2022/06/07 10:15:40;;;;;;;0.43;0.43;;;23.50;91.50;;;;;;5026913;28;20221;-67
2022/06/07 10:18:40;;;;;;;0.40;0.40;;;23.20;91.40;;;;;;5013672;28;20210;-66
2022/06/07 10:21:41;;;;;;;0.40;0.40;;;22.90;91.70;;;;;;5016701;28;20205;-66
2022/06/07 10:24:41;;;;;;;0.40;0.40;;;22.70;92.10;;;;;;5016963;28;20202;-66
2022/06/07 10:27:35;;;;;;;0.40;0.40;;;23.00;92.50;;;;;;5031192;28;20201;-66
2022/06/07 10:30:31;;;;;;;0.40;0.40;;;23.70;91.80;;;;;;5036089;28;20229;-66
2022/06/07 10:33:33;;;;;;;0.40;0.40;;;24.40;91.40;;;;;;5036679;28;20209;-66
2022/06/07 10:36:32;;;;;;;0.50;0.50;;;25.00;89.30;;;;;;5036294;28;20218;-66
2022/06/07 10:39:32;;;;;;;0.40;0.40;;;25.00;87.90;;;;;;5034167;28;20652;-66
2022/06/07 10:42:35;;;;;;;0.40;0.40;;;24.90;88.20;;;;;;5031789;28;20646;-66
2022/06/07 10:45:27;;;;;;;0.40;0.40;;;24.90;87.30;;;;;;5032387;28;20718;-67
2022/06/07 10:48:21;;;;;;;0.40;0.40;;;24.70;86.40;;;;;;5031518;28;20212;-69
2022/06/07 10:54:26;;;;;;;0.40;0.40;;;24.90;86.40;;;;;;5027114;28;20206;-67
2022/06/07 10:57:25;;;;;;;0.40;0.40;;;25.40;85.90;;;;;;5015256;28;20215;-66
2022/06/07 11:00:24;;;;;;;0.40;0.40;;;25.80;83.60;;;;;;5016173;28;20616;-67
2022/06/07 11:03:25;;;;;;;0.40;0.40;;;26.00;79.10;;;;;;5018793;28;20691;-66
2022/06/07 11:09:33;;;;;;;0.40;0.40;;;25.70;81.00;;;;;;5026825;28;20241;-67
2022/06/07 11:12:25;;;;;;;0.40;0.40;;;25.70;80.10;;;;;;5037696;28;20206;-68
2022/06/07 11:15:20;;;;;;;0.40;0.40;;;25.30;79.40;;;;;;5038205;28;20225;-66
2022/06/07 11:18:14;;;;;;;0.50;0.50;;;25.10;80.30;;;;;;5037080;28;20203;-68
2022/06/07 11:21:32;;;;;;;0.40;0.40;;;25.00;80.20;;;;;;5038054;28;20202;-65
2022/06/07 11:24:27;;;;;;;0.60;0.50;;;25.00;79.40;;;;;;5053312;28;20202;-66
2022/06/07 11:27:19;;;;;;;0.40;0.40;;;25.00;80.10;;;;;;5055884;28;20189;-66
2022/06/07 11:30:40;;;;;;;0.40;0.40;;;25.20;80.90;;;;;;5054693;28;20225;-68
2022/06/07 11:34:02;;;;;;;0.40;0.40;;;25.50;79.70;;;;;;5057183;28;20202;-69
2022/06/07 11:36:52;;;;;;;0.40;0.40;;;25.90;78.10;;;;;;5055342;28;20381;-66
2022/06/07 11:39:52;;;;;;;0.40;0.40;;;26.30;78.30;;;;;;5053425;28;20198;-66
2022/06/07 11:42:41;;;;;;;0.40;0.40;;;26.50;75.60;;;;;;5055129;28;20233;-66
2022/06/07 11:45:30;;;;;;;1.77;0.70;;;26.60;73.90;;;;;;5054275;28;20230;-66
2022/06/07 11:48:24;;;;;;;0.40;0.40;;;26.80;75.90;;;;;;5054371;28;20198;-66
2022/06/07 11:51:18;;;;;;;0.40;0.40;;;26.90;75.30;;;;;;5052175;28;20229;-67
2022/06/07 11:54:15;;;;;;;0.40;0.40;;;26.90;76.30;;;;;;5053830;28;20674;-67
2022/06/07 11:57:18;;;;;;;0.40;0.40;;;27.00;76.80;;;;;;5053570;28;20210;-67
2022/06/07 12:00:37;;;;;;;0.40;0.40;;;27.00;75.00;;;;;;5051841;28;20716;-67
2022/06/07 12:03:35;;;;;;;0.40;0.40;;;26.70;77.20;;;;;;5054130;28;20229;-66
2022/06/07 12:06:25;;;;;;;0.40;0.40;;;26.50;74.40;;;;;;5055378;28;20222;-68
2022/06/07 12:09:16;;;;;;;0.40;0.30;;;26.30;74.80;;;;;;5054173;28;20221;-69
2022/06/07 12:12:19;;;;;;;0.50;0.50;;;26.10;74.50;;;;;;5055668;28;20209;-68
2022/06/07 12:15:15;;;;;;;0.40;0.40;;;26.00;75.10;;;;;;5048573;28;20694;-68
2022/06/07 12:18:06;;;;;;;0.40;0.40;;;26.20;74.90;;;;;;5051227;28;20244;-66
2022/06/07 12:21:07;;;;;;;0.40;0.40;;;26.40;74.70;;;;;;5053244;28;20217;-67
2022/06/07 12:24:04;;;;;;;0.60;0.40;;;26.50;73.00;;;;;;5055505;28;20274;-69
2022/06/07 12:26:53;;;;;;;0.40;0.40;;;26.50;72.20;;;;;;5037482;28;20575;-67
2022/06/07 12:29:44;;;;;;;0.40;0.40;;;26.90;71.40;;;;;;5036894;28;20214;-67
2022/06/07 12:32:35;;;;;;;0.40;0.40;;;27.10;72.30;;;;;;5035443;28;20616;-67
2022/06/07 12:35:26;;;;;;;0.40;0.40;;;27.40;71.70;;;;;;5044378;28;20218;-67
2022/06/07 12:38:16;;;;;;;0.40;0.40;;;27.50;72.10;;;;;;5032090;28;20275;-68
2022/06/07 12:41:06;;;;;;;0.40;0.40;;;27.50;70.60;;;;;;5047893;28;20202;-69
2022/06/07 12:43:56;;;;;;;0.40;0.40;;;27.80;71.30;;;;;;5036352;28;20655;-68
2022/06/07 12:46:46;;;;;;;0.40;0.40;;;27.90;70.90;;;;;;5024726;28;20242;-68
2022/06/07 12:49:42;;;;;;;0.40;0.30;;;27.70;69.70;;;;;;5025383;28;20198;-68
2022/06/07 12:52:32;;;;;;;0.40;0.40;;;27.40;70.50;;;;;;5026740;28;20205;-67
2022/06/07 12:55:24;;;;;;;0.40;0.40;;;27.00;71.60;;;;;;5052569;28;20271;-68
2022/06/07 12:58:19;;;;;;;0.40;0.40;;;26.60;69.70;;;;;;5052037;28;20214;-69
2022/06/07 13:01:20;;;;;;;0.40;0.40;;;26.30;71.90;;;;;;5051342;28;20208;-69
2022/06/07 13:04:19;;;;;;;0.40;0.40;;;26.10;70.80;;;;;;5051673;28;20198;-68
2022/06/07 13:07:19;;;;;;;0.50;0.50;;;26.00;71.30;;;;;;5053352;28;20212;-68
2022/06/07 13:10:37;;;;;;;0.40;0.40;;;26.00;69.70;;;;;;5053394;28;20670;-68
2022/06/07 13:13:32;;;;;;;0.40;0.40;;;25.70;70.50;;;;;;5053642;28;20198;-66
2022/06/07 13:16:41;;;;;;;0.40;0.40;;;25.40;71.10;;;;;;5051256;28;20244;-66
2022/06/07 13:19:30;;;;;;;0.40;0.40;;;25.40;71.00;;;;;;5052833;28;20220;-66
2022/06/07 13:22:19;;;;;;;0.40;0.40;;;25.60;72.40;;;;;;5051654;28;20232;-68
2022/06/07 13:25:18;;;;;;;0.40;0.40;;;26.00;72.60;;;;;;5050102;28;20222;-66
2022/06/07 13:28:17;;;;;;;0.40;0.40;;;26.70;72.70;;;;;;5051388;28;20220;-66
2022/06/07 13:31:26;;;;;;;0.45;0.45;;;27.40;70.70;;;;;;5051896;28;20206;-67
2022/06/07 13:34:20;;;;;;;0.65;0.65;;;27.30;68.20;;;;;;5053478;28;20198;-66
2022/06/07 13:37:19;;;;;;;0.40;0.30;;;27.20;67.90;;;;;;5051650;28;20213;-67
2022/06/07 13:40:24;;;;;;;0.40;0.40;;;27.10;68.30;;;;;;5052582;28;20198;-67
2022/06/07 13:43:18;;;;;;;0.40;0.40;;;27.10;68.80;;;;;;5052884;28;20202;-67
2022/06/07 13:46:25;;;;;;;0.40;0.40;;;27.10;68.30;;;;;;5052053;28;20226;-66
2022/06/07 13:55:57;;;;;;;0.43;0.43;;;29.80;64.70;;;;;;5050548;28;20225;-65
2022/06/07 13:58:52;;;;;;;0.40;0.40;;;30.00;62.90;;;;;;5009824;28;20206;-66
2022/06/07 14:01:44;;;;;;;0.40;0.40;;;29.90;62.60;;;;;;5007033;28;20665;-67
2022/06/07 14:04:34;;;;;;;0.40;0.40;;;29.50;61.80;;;;;;5021400;28;20212;-67
2022/06/07 14:07:22;;;;;;;0.40;0.40;;;30.10;60.40;;;;;;5029068;28;20194;-67
2022/06/07 14:10:14;;;;;;;0.40;0.40;;;32.90;58.10;;;;;;5026429;28;20211;-66
2022/06/07 14:13:03;;;;;;;0.40;0.40;;;34.60;53.50;;;;;;5023536;28;20214;-67
2022/06/07 14:15:53;;;;;;;0.40;0.40;;;34.50;53.00;;;;;;5018651;28;20225;-67
2022/06/07 14:18:42;;;;;;;0.50;0.50;;;36.20;49.40;;;;;;5009540;28;20230;-67
2022/06/07 14:21:32;;;;;;;0.40;0.40;;;37.70;47.30;;;;;;5009301;28;20207;-67
2022/06/07 14:24:23;;;;;;;0.40;0.40;;;38.20;45.90;;;;;;5008318;28;20222;-67
2022/06/07 14:27:14;;;;;;;0.40;0.40;;;39.00;45.50;;;;;;5021415;28;20595;-67
2022/06/07 14:30:02;;;;;;;0.50;0.50;;;38.90;43.60;;;;;;5030425;28;20194;-68
2022/06/07 14:32:53;;;;;;;0.50;0.50;;;39.20;43.40;;;;;;5031748;28;20772;-68
2022/06/07 14:35:41;;;;;;;0.40;0.40;;;39.70;42.40;;;;;;5035939;28;20221;-68
2022/06/07 14:38:30;;;;;;;0.40;0.40;;;39.50;42.00;;;;;;5034831;28;20716;-67
2022/06/07 14:41:19;;;;;;;0.45;0.45;;;40.50;41.00;;;;;;5035365;28;20198;-68
2022/06/07 14:44:08;;;;;;;0.47;0.47;;;42.00;39.40;;;;;;5014359;28;20202;-68
2022/06/07 14:46:57;;;;;;;0.50;0.50;;;41.60;38.60;;;;;;5015157;28;20222;-68
2022/06/07 14:49:47;;;;;;;0.40;0.40;;;41.50;38.60;;;;;;5014378;28;20203;-68
2022/06/07 14:52:36;;;;;;;0.45;0.45;;;40.60;38.60;;;;;;5015098;28;20206;-68
2022/06/07 14:55:27;;;;;;;0.50;0.50;;;38.90;40.40;;;;;;5015181;28;20271;-68
2022/06/07 14:58:16;;;;;;;0.40;0.40;;;37.70;41.20;;;;;;5016393;28;20718;-68
2022/06/07 15:01:04;;;;;;;0.40;0.40;;;35.50;41.90;;;;;;5018569;28;20203;-68
2022/06/07 15:03:53;;;;;;;0.40;0.40;;;33.70;44.30;;;;;;5018874;28;20202;-69
2022/06/07 15:06:42;;;;;;;0.45;0.45;;;32.70;45.50;;;;;;5019819;28;20262;-68
2022/06/07 15:09:31;;;;;;;0.50;0.50;;;34.50;44.70;;;;;;5015431;28;20202;-68
2022/06/07 15:12:20;;;;;;;0.40;0.40;;;37.00;42.10;;;;;;5012449;28;20221;-69
2022/06/07 15:15:09;;;;;;;0.40;0.40;;;37.10;42.30;;;;;;5012190;28;20218;-68
2022/06/07 15:18:01;;;;;;;0.40;0.40;;;36.50;41.90;;;;;;5014604;28;20246;-68
2022/06/07 15:20:49;;;;;;;0.40;0.40;;;35.10;44.00;;;;;;5014682;28;20286;-68
2022/06/07 15:23:37;;;;;;;0.40;0.40;;;36.20;43.70;;;;;;5012229;28;20198;-67
2022/06/07 15:26:27;;;;;;;0.40;0.40;;;38.50;40.70;;;;;;5025872;28;20234;-67
2022/06/07 15:32:29;;;;;;;0.40;0.40;;;39.00;39.60;;;;;;5019735;28;20211;-68
2022/06/07 15:35:21;;;;;;;0.40;0.40;;;37.90;39.60;;;;;;5017559;28;20228;-68